Portada
METAR-TAF:

METAR-TAF

Aeroports :

Mysore, Índia

latitud: 12-13-48N, longitud: 76-39-21E, altitud: 715 m

Observació

L'informe es va fer fa 39 minuts, a les 13:00 UTC
Vent calma
Temperatura 27°C
Humitat 66%
Pressió 1012 hPa
Visibilitat: 6000 m
Escasses núvols a una alçada de 1500 ft

METAR: VOMY 021300Z 00000KT 6000 FEW015 27/20 Q1012

Hora: 19:09 (13:39 UTC)

Pronòstic

L'informe es va fer fa 5 hores i 39 minuts, a les 08:00 UTC
Pronòstic vàlid del 02 a les 09 UTC al 02 a les 18 UTC
Vent 2 kt amb direcció variable
Visibilitat: 6000 m
Núvols disperses a una alçada de 1200 ft
Cel ennuvolat a una alçada de 8000 ft
Temporalment
l' 02 a les 09 UTC al 02 a les 15 UTC
Visibilitat: 3000 m
Núvols disperses a una alçada de 800 ft
Núvols disperses a una alçada de 1200 ft
Cel ennuvolat a una alçada de 8000 ft
plugim, boirina

TAF: VOMY 020800Z 0209/0218 VRB02KT 6000 SCT012 BKN080 TEMPO 0209/0215 3000 DZ BR SCT008 SCT012 BKN080

Observacions i pronòstics meteorològics de més de 4000 aeroports (METAR i TAF).

Les estacions disponibles són els punts grocs i vermells al mapa.

Posi el ratolí al punt desitjat per veure el nom de l'estació.

Feu clic per veure les observacions i els pronòstics meteorològics.

Per canviar el mapa: feu clic els botons verds amb una creu de color negre per apropar; al botó verd amb un guió per allunyar la imatge; o en les fletxes verdes per a mapes adjacents.


METAR-TAF: